createdAt,value
2023-02-07T00:01:23.842Z,9.10
2023-02-07T00:03:51.322Z,9.10
2023-02-07T00:06:34.081Z,8.07
2023-02-07T00:09:04.028Z,8.37
2023-02-07T00:11:30.404Z,8.27
2023-02-07T00:13:58.678Z,7.97
2023-02-07T00:16:26.072Z,7.90
2023-02-07T00:18:53.145Z,7.60
2023-02-07T00:21:25.035Z,7.60
2023-02-07T00:23:53.270Z,7.70
2023-02-07T00:26:22.810Z,9.20
2023-02-07T00:28:51.891Z,8.43
2023-02-07T00:31:22.725Z,8.83
2023-02-07T00:33:53.069Z,8.57
2023-02-07T00:36:22.519Z,7.20
2023-02-07T00:38:49.836Z,8.27
2023-02-07T00:41:17.850Z,8.23
2023-02-07T00:43:46.257Z,7.77
2023-02-07T00:46:12.928Z,7.53
2023-02-07T00:48:39.482Z,6.73
2023-02-07T00:51:09.018Z,6.93
2023-02-07T00:53:35.594Z,7.03
2023-02-07T00:56:02.018Z,7.07
2023-02-07T00:58:29.536Z,6.80
2023-02-07T01:00:55.780Z,7.47
2023-02-07T01:03:21.992Z,7.00
2023-02-07T01:05:48.276Z,6.47
2023-02-07T01:08:15.022Z,6.90
2023-02-07T01:10:44.271Z,7.57
2023-02-07T01:13:13.075Z,6.17
2023-02-07T01:15:43.516Z,6.20
2023-02-07T01:18:10.897Z,6.33
2023-02-07T01:20:37.269Z,6.67
2023-02-07T01:23:05.181Z,5.93
2023-02-07T01:25:32.294Z,6.63
2023-02-07T01:27:58.631Z,5.80
2023-02-07T01:30:24.846Z,6.40
2023-02-07T01:32:51.037Z,5.97
2023-02-07T01:35:17.474Z,6.30
2023-02-07T01:37:43.641Z,6.27
2023-02-07T01:40:12.138Z,6.60
2023-02-07T01:42:38.604Z,6.63
2023-02-07T01:45:21.599Z,5.90
2023-02-07T01:47:48.033Z,6.80
2023-02-07T01:50:16.619Z,6.80
2023-02-07T01:52:44.154Z,5.83
2023-02-07T01:55:17.405Z,5.80
2023-02-07T01:57:44.733Z,5.50
2023-02-07T02:00:15.547Z,6.13
2023-02-07T02:02:43.018Z,6.47
2023-02-07T02:05:11.427Z,6.30
2023-02-07T02:07:39.758Z,5.97
2023-02-07T02:10:47.434Z,6.10
2023-02-07T02:13:54.912Z,6.20
2023-02-07T02:16:35.484Z,6.03
2023-02-07T02:19:43.779Z,5.90
2023-02-07T02:22:54.839Z,5.10
2023-02-07T02:25:24.122Z,5.60
2023-02-07T02:28:26.129Z,5.80
2023-02-07T02:31:19.519Z,5.50
2023-02-07T02:34:08.769Z,5.53
2023-02-07T02:37:00.405Z,6.00
2023-02-07T02:40:04.148Z,5.37
2023-02-07T02:42:49.976Z,5.70
2023-02-07T02:45:28.109Z,6.20
2023-02-07T02:47:55.416Z,5.77
2023-02-07T02:50:30.172Z,6.37
2023-02-07T02:52:57.130Z,5.80
2023-02-07T02:55:46.701Z,5.50
2023-02-07T02:58:47.521Z,5.90
2023-02-07T03:01:18.867Z,5.33
2023-02-07T03:04:45.688Z,5.50
2023-02-07T03:07:48.707Z,5.57
2023-02-07T03:10:59.209Z,5.93
2023-02-07T03:13:35.407Z,5.90
2023-02-07T03:16:50.217Z,5.90
2023-02-07T03:19:26.784Z,5.43
2023-02-07T03:22:04.956Z,6.17
2023-02-07T03:24:37.330Z,6.07
2023-02-07T03:27:10.565Z,6.07
2023-02-07T03:29:42.377Z,6.40
2023-02-07T03:32:13.188Z,5.90
2023-02-07T03:35:03.300Z,6.40
2023-02-07T03:37:47.378Z,6.03
2023-02-07T03:40:15.252Z,5.93
2023-02-07T03:42:56.568Z,6.13
2023-02-07T03:45:23.340Z,5.97
2023-02-07T03:47:49.660Z,6.10
2023-02-07T03:50:17.061Z,5.80
2023-02-07T03:52:43.425Z,6.40
2023-02-07T03:55:10.107Z,7.10
2023-02-07T03:57:36.790Z,10.57
2023-02-07T04:00:04.943Z,12.87
2023-02-07T04:02:39.098Z,13.37
2023-02-07T04:05:06.083Z,13.23
2023-02-07T04:07:32.400Z,12.57
2023-02-07T04:09:58.632Z,10.57
2023-02-07T04:12:31.861Z,10.43
2023-02-07T04:15:05.042Z,9.23
2023-02-07T04:17:31.905Z,10.07
2023-02-07T04:20:00.689Z,9.43
2023-02-07T04:22:28.346Z,8.70
2023-02-07T04:24:54.653Z,7.90
2023-02-07T04:27:20.818Z,8.33
2023-02-07T04:29:47.149Z,7.20
2023-02-07T04:32:13.462Z,7.47
2023-02-07T04:34:39.750Z,7.27
2023-02-07T04:37:05.994Z,7.40
2023-02-07T04:39:32.230Z,7.40
2023-02-07T04:41:58.428Z,7.93
2023-02-07T04:44:24.593Z,7.17
2023-02-07T04:46:51.137Z,7.40
2023-02-07T04:49:17.294Z,7.70
2023-02-07T04:51:43.636Z,7.30
2023-02-07T04:54:10.456Z,7.00
2023-02-07T04:56:36.693Z,7.70
2023-02-07T04:59:03.196Z,7.87
2023-02-07T05:01:29.463Z,7.50
2023-02-07T05:03:55.773Z,8.13
2023-02-07T05:06:22.042Z,8.83
2023-02-07T05:08:48.271Z,8.17
2023-02-07T05:11:14.752Z,8.80
2023-02-07T05:13:40.978Z,8.17
2023-02-07T05:16:07.392Z,8.43
2023-02-07T05:18:33.648Z,8.10
2023-02-07T05:21:00.029Z,7.97
2023-02-07T05:23:26.504Z,11.47
2023-02-07T05:25:52.753Z,10.33
2023-02-07T05:28:19.416Z,9.57
2023-02-07T05:30:45.686Z,11.50
2023-02-07T05:33:11.966Z,12.40
2023-02-07T05:35:42.897Z,12.37
2023-02-07T05:38:13.807Z,10.17
2023-02-07T05:40:41.878Z,11.03
2023-02-07T05:43:09.788Z,11.70
2023-02-07T05:45:36.550Z,11.57
2023-02-07T05:48:04.152Z,10.23
2023-02-07T05:50:30.835Z,11.60
2023-02-07T05:53:10.021Z,11.97
2023-02-07T05:55:36.634Z,10.97
2023-02-07T05:58:03.159Z,11.23
2023-02-07T06:00:29.901Z,12.70
2023-02-07T06:02:56.232Z,11.67
2023-02-07T06:05:24.205Z,10.87
2023-02-07T06:07:51.234Z,11.07
2023-02-07T06:10:17.631Z,10.70
2023-02-07T06:12:43.953Z,10.50
2023-02-07T06:15:10.414Z,10.40
2023-02-07T06:17:36.737Z,13.37
2023-02-07T06:20:05.033Z,11.13
2023-02-07T06:22:31.365Z,12.53
2023-02-07T06:24:57.717Z,13.40
2023-02-07T06:27:23.932Z,12.40
2023-02-07T06:29:52.944Z,13.47
2023-02-07T06:32:19.168Z,13.03
2023-02-07T06:34:45.397Z,12.60
2023-02-07T06:37:11.837Z,12.73
2023-02-07T06:39:39.037Z,12.80
2023-02-07T06:42:05.334Z,12.20
2023-02-07T06:44:31.497Z,12.03
2023-02-07T06:46:57.623Z,11.33
2023-02-07T06:49:23.936Z,11.40
2023-02-07T06:51:50.608Z,10.93
2023-02-07T06:54:16.775Z,10.57
2023-02-07T06:56:43.214Z,10.30
2023-02-07T06:59:09.527Z,10.20
2023-02-07T07:01:35.842Z,10.20
2023-02-07T07:04:02.069Z,10.80
2023-02-07T07:06:28.265Z,9.50
2023-02-07T07:08:54.911Z,9.30
2023-02-07T07:11:21.076Z,8.23
2023-02-07T07:13:47.305Z,9.17
2023-02-07T07:16:13.819Z,9.13
2023-02-07T07:18:40.683Z,8.90
2023-02-07T07:21:07.640Z,8.50
2023-02-07T07:23:34.082Z,8.80
2023-02-07T07:26:00.436Z,11.00
2023-02-07T07:28:26.729Z,17.50
2023-02-07T07:30:53.135Z,19.10
2023-02-07T07:33:19.576Z,14.17
2023-02-07T07:35:45.738Z,14.43
2023-02-07T07:38:12.083Z,12.10
2023-02-07T07:40:38.369Z,12.20
2023-02-07T07:43:05.232Z,11.73
2023-02-07T07:45:42.756Z,12.00
2023-02-07T07:48:08.973Z,11.47
2023-02-07T07:50:35.157Z,10.50
2023-02-07T07:53:01.315Z,10.63
2023-02-07T07:55:27.496Z,10.23
2023-02-07T07:57:53.723Z,10.27
2023-02-07T08:00:20.085Z,10.30
2023-02-07T08:02:46.333Z,11.27
2023-02-07T08:05:13.830Z,9.67
2023-02-07T08:07:40.547Z,11.53
2023-02-07T08:10:07.315Z,12.33
2023-02-07T08:12:33.862Z,13.80
2023-02-07T08:15:00.098Z,13.27
2023-02-07T08:17:26.296Z,13.97
2023-02-07T08:19:52.635Z,13.20
2023-02-07T08:22:18.964Z,13.63
2023-02-07T08:24:45.233Z,14.03
2023-02-07T08:27:11.733Z,14.23
2023-02-07T08:29:37.901Z,13.90
2023-02-07T08:32:04.735Z,13.80
2023-02-07T08:34:36.372Z,11.97
2023-02-07T08:37:06.339Z,13.73
2023-02-07T08:39:36.883Z,14.07
2023-02-07T08:42:07.511Z,12.60
2023-02-07T08:44:35.235Z,11.33
2023-02-07T08:47:02.325Z,11.90
2023-02-07T08:49:28.543Z,11.00
2023-02-07T08:51:54.723Z,11.87
2023-02-07T08:54:20.932Z,10.67
2023-02-07T08:56:48.067Z,14.33
2023-02-07T08:59:14.686Z,13.03
2023-02-07T09:01:40.823Z,12.37
2023-02-07T09:04:07.667Z,11.20
2023-02-07T09:06:33.808Z,11.07
2023-02-07T09:08:59.934Z,12.10
2023-02-07T09:11:26.172Z,11.23
2023-02-07T09:13:52.351Z,11.63
2023-02-07T09:16:18.676Z,12.17
2023-02-07T09:18:45.046Z,11.87
2023-02-07T09:21:11.208Z,11.50
2023-02-07T09:23:37.351Z,9.97
2023-02-07T09:26:06.520Z,10.70
2023-02-07T09:28:33.242Z,9.53
2023-02-07T09:30:59.555Z,9.73
2023-02-07T09:33:25.858Z,9.67
2023-02-07T09:35:53.887Z,9.70
2023-02-07T09:38:24.818Z,9.87
2023-02-07T09:40:54.112Z,9.67
2023-02-07T09:43:58.134Z,10.47
2023-02-07T09:47:17.644Z,9.77
2023-02-07T09:50:10.308Z,8.70
2023-02-07T09:52:51.470Z,9.30
2023-02-07T09:55:31.905Z,9.60
2023-02-07T09:58:08.302Z,10.00
2023-02-07T10:00:37.297Z,9.73
2023-02-07T10:03:19.056Z,8.83
2023-02-07T10:06:16.241Z,9.90
2023-02-07T10:09:02.179Z,10.87
2023-02-07T10:12:06.683Z,10.40
2023-02-07T10:15:06.206Z,9.30
2023-02-07T10:17:45.659Z,8.37
2023-02-07T10:20:28.399Z,9.20
2023-02-07T10:23:36.111Z,9.00
2023-02-07T10:26:55.880Z,8.30
2023-02-07T10:29:48.192Z,8.33
2023-02-07T10:32:25.128Z,9.30
2023-02-07T10:35:02.508Z,10.50
2023-02-07T10:37:37.155Z,8.87
2023-02-07T10:40:32.456Z,9.23
2023-02-07T10:43:08.133Z,9.47
2023-02-07T10:45:34.429Z,9.40
2023-02-07T10:48:00.749Z,9.03
2023-02-07T10:50:30.950Z,8.80
2023-02-07T10:52:58.622Z,9.30
2023-02-07T10:55:42.530Z,9.23
2023-02-07T10:58:24.050Z,8.63
2023-02-07T11:00:54.927Z,8.60
2023-02-07T11:03:24.631Z,8.80
2023-02-07T11:05:58.943Z,8.30
2023-02-07T11:08:31.986Z,8.43
2023-02-07T11:11:20.080Z,7.97
2023-02-07T11:13:50.976Z,7.83
2023-02-07T11:16:22.031Z,7.30
2023-02-07T11:19:06.507Z,7.70
2023-02-07T11:21:32.978Z,10.03
2023-02-07T11:24:26.745Z,8.07
2023-02-07T11:27:12.070Z,7.53
2023-02-07T11:29:54.479Z,8.07
2023-02-07T11:32:24.629Z,7.63
2023-02-07T11:34:57.338Z,7.40
2023-02-07T11:37:46.777Z,7.70
2023-02-07T11:40:19.020Z,7.80
2023-02-07T11:42:56.728Z,7.73
2023-02-07T11:45:23.846Z,7.77
2023-02-07T11:47:56.448Z,7.80
2023-02-07T11:50:43.037Z,8.10
2023-02-07T11:53:50.775Z,7.90
2023-02-07T11:56:30.477Z,7.83
2023-02-07T11:58:58.404Z,7.63
2023-02-07T12:01:31.852Z,8.47
2023-02-07T12:04:18.561Z,8.60
2023-02-07T12:06:58.735Z,7.20
2023-02-07T12:09:53.839Z,7.37
2023-02-07T12:12:47.026Z,7.67
2023-02-07T12:15:27.671Z,7.87
2023-02-07T12:18:20.913Z,7.97
2023-02-07T12:21:04.651Z,8.40
2023-02-07T12:23:55.008Z,7.20
2023-02-07T12:26:23.201Z,10.87
2023-02-07T12:29:37.636Z,8.30
2023-02-07T12:32:13.475Z,7.20
2023-02-07T12:35:05.099Z,7.50
2023-02-07T12:37:46.183Z,8.80
2023-02-07T12:40:18.200Z,8.00
2023-02-07T12:43:00.907Z,7.63
2023-02-07T12:46:02.564Z,6.93
2023-02-07T12:49:16.384Z,8.33
2023-02-07T12:52:16.175Z,8.27
2023-02-07T12:55:00.381Z,6.83
2023-02-07T12:58:04.670Z,8.20
2023-02-07T13:01:08.221Z,8.17
2023-02-07T13:04:10.837Z,9.17
2023-02-07T13:07:00.291Z,13.67
2023-02-07T13:10:00.010Z,9.50
2023-02-07T13:12:59.744Z,8.47
2023-02-07T13:15:40.969Z,7.67
2023-02-07T13:18:25.371Z,7.20
2023-02-07T13:21:27.525Z,6.53
2023-02-07T13:24:00.748Z,6.83
2023-02-07T13:26:28.443Z,7.53
2023-02-07T13:29:13.777Z,13.83
2023-02-07T13:31:44.649Z,7.90
2023-02-07T13:34:18.271Z,6.57
2023-02-07T13:36:50.824Z,7.07
2023-02-07T13:39:56.232Z,7.17
2023-02-07T13:42:51.123Z,10.30
2023-02-07T13:45:58.259Z,9.27
2023-02-07T13:48:50.480Z,6.40
2023-02-07T13:51:23.914Z,6.23
2023-02-07T13:54:15.581Z,8.17
2023-02-07T13:57:16.591Z,6.07
2023-02-07T14:00:03.494Z,6.03
2023-02-07T14:02:55.437Z,5.90
2023-02-07T14:05:39.421Z,11.27
2023-02-07T14:08:18.004Z,8.20
2023-02-07T14:10:56.566Z,6.77
2023-02-07T14:13:25.625Z,7.30
2023-02-07T14:16:02.340Z,8.20
2023-02-07T14:18:54.962Z,5.83
2023-02-07T14:21:28.148Z,6.67
2023-02-07T14:24:09.694Z,7.17
2023-02-07T14:26:38.980Z,9.13
2023-02-07T14:29:23.264Z,7.10
2023-02-07T14:32:20.762Z,7.43
2023-02-07T14:35:25.954Z,6.77
2023-02-07T14:38:06.009Z,6.27
2023-02-07T14:41:08.466Z,6.50
2023-02-07T14:43:59.738Z,5.50
2023-02-07T14:46:38.863Z,6.03
2023-02-07T14:49:26.448Z,5.77
2023-02-07T14:51:59.921Z,5.70
2023-02-07T14:54:42.048Z,5.83
2023-02-07T14:57:33.572Z,5.57
2023-02-07T15:00:11.820Z,4.97
2023-02-07T15:02:51.273Z,5.13
2023-02-07T15:05:34.647Z,5.50
2023-02-07T15:08:05.449Z,5.47
2023-02-07T15:10:39.414Z,5.20
2023-02-07T15:13:20.160Z,4.90
2023-02-07T15:16:04.970Z,5.33
2023-02-07T15:18:39.612Z,5.40
2023-02-07T15:21:10.241Z,4.97
2023-02-07T15:23:36.442Z,5.43
2023-02-07T15:26:08.055Z,5.40
2023-02-07T15:28:34.880Z,5.20
2023-02-07T15:31:12.526Z,5.10
2023-02-07T15:34:10.692Z,5.10
2023-02-07T15:36:41.610Z,5.23
2023-02-07T15:39:14.157Z,4.70
2023-02-07T15:41:40.635Z,6.40
2023-02-07T15:44:26.443Z,6.13
2023-02-07T15:47:05.477Z,6.23
2023-02-07T15:49:35.740Z,9.23
2023-02-07T15:52:27.670Z,17.97
2023-02-07T15:54:55.745Z,9.40
2023-02-07T15:57:42.010Z,8.23
2023-02-07T16:00:28.754Z,7.47
2023-02-07T16:03:03.713Z,8.60
2023-02-07T16:05:40.935Z,11.07
2023-02-07T16:08:31.555Z,33.67
2023-02-07T16:11:25.677Z,44.90
2023-02-07T16:14:22.632Z,23.37
2023-02-07T16:16:55.504Z,16.13
2023-02-07T16:19:32.325Z,13.13
2023-02-07T16:22:06.594Z,11.33
2023-02-07T16:24:37.268Z,11.77
2023-02-07T16:27:05.363Z,11.53
2023-02-07T16:29:35.122Z,8.07
2023-02-07T16:32:01.523Z,7.00
2023-02-07T16:34:27.821Z,7.97
2023-02-07T16:36:56.149Z,6.40
2023-02-07T16:39:22.600Z,7.70
2023-02-07T16:41:55.485Z,8.07
2023-02-07T16:44:27.862Z,8.60
2023-02-07T16:46:54.145Z,6.70
2023-02-07T16:49:26.368Z,8.07
2023-02-07T16:51:53.399Z,8.10
2023-02-07T16:54:20.377Z,7.57
2023-02-07T16:56:51.822Z,7.93
2023-02-07T16:59:21.044Z,7.97
2023-02-07T17:01:49.922Z,8.37
2023-02-07T17:04:16.923Z,7.53
2023-02-07T17:06:44.892Z,7.17
2023-02-07T17:09:24.691Z,8.30
2023-02-07T17:11:53.970Z,7.70
2023-02-07T17:14:21.198Z,7.77
2023-02-07T17:16:48.971Z,8.53
2023-02-07T17:19:19.337Z,7.90
2023-02-07T17:21:46.898Z,7.67
2023-02-07T17:24:13.648Z,7.60
2023-02-07T17:26:44.194Z,10.97
2023-02-07T17:29:14.225Z,10.73
2023-02-07T17:31:41.887Z,10.00
2023-02-07T17:34:08.832Z,11.63
2023-02-07T17:36:36.016Z,9.67
2023-02-07T17:39:03.173Z,12.33
2023-02-07T17:41:30.618Z,9.47
2023-02-07T17:43:56.943Z,11.87
2023-02-07T17:46:26.433Z,11.57
2023-02-07T17:48:54.512Z,10.97
2023-02-07T17:51:24.384Z,11.97
2023-02-07T17:53:51.605Z,10.73
2023-02-07T17:56:31.474Z,14.57
2023-02-07T17:59:02.421Z,11.93
2023-02-07T18:01:32.960Z,11.63
2023-02-07T18:03:59.228Z,10.17
2023-02-07T18:06:28.681Z,11.47
2023-02-07T18:08:57.919Z,11.70
2023-02-07T18:11:26.422Z,13.67
2023-02-07T18:13:52.912Z,12.17
2023-02-07T18:16:23.474Z,11.10
2023-02-07T18:18:51.505Z,11.63
2023-02-07T18:21:18.747Z,9.83
2023-02-07T18:23:45.577Z,9.57
2023-02-07T18:26:23.179Z,11.20
2023-02-07T18:28:50.536Z,10.47
2023-02-07T18:31:22.753Z,8.60
2023-02-07T18:33:50.969Z,9.60
2023-02-07T18:36:19.162Z,8.60
2023-02-07T18:38:47.208Z,9.30
2023-02-07T18:41:21.944Z,8.70
2023-02-07T18:43:50.404Z,8.47
2023-02-07T18:46:21.050Z,8.93
2023-02-07T18:48:53.487Z,8.13
2023-02-07T18:51:21.522Z,9.47
2023-02-07T18:53:54.160Z,8.97
2023-02-07T18:56:24.783Z,7.60
2023-02-07T18:58:52.354Z,8.87
2023-02-07T19:01:20.507Z,10.43
2023-02-07T19:03:53.728Z,8.97
2023-02-07T19:06:26.646Z,12.23
2023-02-07T19:08:55.906Z,13.80
2023-02-07T19:11:22.505Z,22.07
2023-02-07T19:13:48.944Z,23.17
2023-02-07T19:16:19.337Z,19.03
2023-02-07T19:18:47.292Z,20.87
2023-02-07T19:21:25.991Z,20.40
2023-02-07T19:23:54.924Z,18.23
2023-02-07T19:26:23.256Z,17.70
2023-02-07T19:28:52.162Z,18.17
2023-02-07T19:31:19.632Z,16.10
2023-02-07T19:33:49.860Z,17.33
2023-02-07T19:36:18.723Z,17.97
2023-02-07T19:38:47.772Z,20.10
2023-02-07T19:41:13.915Z,28.73
2023-02-07T19:43:41.048Z,32.83
2023-02-07T19:46:07.264Z,23.97
2023-02-07T19:48:33.502Z,22.07
2023-02-07T19:51:08.159Z,20.40
2023-02-07T19:53:34.916Z,21.53
2023-02-07T19:56:10.508Z,17.30
2023-02-07T19:58:43.046Z,16.40
2023-02-07T20:01:10.671Z,19.70
2023-02-07T20:03:38.613Z,24.30
2023-02-07T20:06:12.023Z,27.43
2023-02-07T20:08:40.382Z,19.33
2023-02-07T20:11:12.959Z,18.57
2023-02-07T20:13:42.539Z,17.53
2023-02-07T20:16:13.707Z,15.23
2023-02-07T20:18:40.107Z,17.60
2023-02-07T20:21:12.003Z,18.53
2023-02-07T20:23:39.203Z,20.87
2023-02-07T20:26:14.657Z,19.37
2023-02-07T20:28:41.317Z,18.80
2023-02-07T20:31:10.655Z,15.80
2023-02-07T20:33:40.255Z,14.07
2023-02-07T20:36:08.484Z,13.97
2023-02-07T20:38:34.779Z,16.97
2023-02-07T20:41:14.738Z,18.63
2023-02-07T20:43:42.263Z,22.90
2023-02-07T20:46:12.973Z,22.70
2023-02-07T20:48:42.606Z,35.20
2023-02-07T20:51:10.282Z,31.50
2023-02-07T20:53:43.315Z,29.93
2023-02-07T20:56:18.686Z,25.23
2023-02-07T20:58:48.844Z,21.70
2023-02-07T21:01:22.403Z,20.93
2023-02-07T21:03:51.606Z,19.37
2023-02-07T21:06:19.057Z,19.17
2023-02-07T21:08:45.917Z,19.57
2023-02-07T21:11:12.301Z,20.87
2023-02-07T21:13:38.954Z,19.00
2023-02-07T21:16:07.751Z,18.40
2023-02-07T21:18:35.067Z,16.13
2023-02-07T21:21:07.249Z,17.23
2023-02-07T21:23:34.130Z,17.03
2023-02-07T21:26:06.764Z,16.77
2023-02-07T21:28:34.825Z,17.93
2023-02-07T21:31:08.030Z,16.80
2023-02-07T21:33:34.345Z,15.87
2023-02-07T21:36:10.920Z,16.17
2023-02-07T21:38:39.097Z,17.60
2023-02-07T21:41:11.038Z,16.03
2023-02-07T21:43:39.525Z,15.67
2023-02-07T21:46:17.500Z,13.20
2023-02-07T21:48:45.999Z,12.57
2023-02-07T21:51:17.199Z,14.30
2023-02-07T21:53:44.051Z,13.00
2023-02-07T21:56:14.074Z,12.50
2023-02-07T21:58:43.166Z,12.83
2023-02-07T22:01:16.489Z,13.37
2023-02-07T22:03:47.093Z,13.30
2023-02-07T22:06:15.431Z,12.87
2023-02-07T22:08:49.467Z,13.17
2023-02-07T22:11:18.053Z,13.60
2023-02-07T22:13:45.322Z,12.60
2023-02-07T22:16:14.948Z,11.10
2023-02-07T22:18:42.170Z,11.77
2023-02-07T22:21:19.741Z,12.40
2023-02-07T22:23:49.272Z,12.93
2023-02-07T22:26:17.045Z,11.83
2023-02-07T22:28:48.066Z,12.03
2023-02-07T22:31:24.605Z,12.73
2023-02-07T22:33:53.292Z,12.03
2023-02-07T22:36:26.207Z,12.37
2023-02-07T22:38:53.637Z,11.93
2023-02-07T22:41:21.258Z,12.50
2023-02-07T22:43:49.404Z,12.17
2023-02-07T22:46:19.273Z,12.50
2023-02-07T22:48:47.380Z,13.13
2023-02-07T22:51:28.492Z,12.17
2023-02-07T22:54:05.638Z,11.93
2023-02-07T22:56:34.604Z,13.10
2023-02-07T22:59:01.590Z,13.00
2023-02-07T23:01:33.558Z,12.23
2023-02-07T23:04:02.924Z,12.47
2023-02-07T23:06:31.669Z,12.27
2023-02-07T23:08:58.186Z,12.90
2023-02-07T23:11:24.465Z,13.23
2023-02-07T23:13:52.593Z,12.30
2023-02-07T23:16:23.162Z,13.10
2023-02-07T23:18:52.683Z,12.83
2023-02-07T23:21:21.131Z,12.13
2023-02-07T23:23:47.744Z,12.97
2023-02-07T23:26:21.719Z,11.50
2023-02-07T23:28:48.408Z,10.90
2023-02-07T23:31:18.588Z,12.10
2023-02-07T23:33:45.197Z,12.50
2023-02-07T23:36:12.274Z,11.60
2023-02-07T23:38:39.196Z,11.07
2023-02-07T23:41:06.704Z,11.00
2023-02-07T23:43:34.061Z,12.13
2023-02-07T23:46:00.287Z,12.03
2023-02-07T23:48:26.516Z,11.13
2023-02-07T23:50:55.545Z,12.60
2023-02-07T23:53:22.794Z,11.80
2023-02-07T23:55:51.991Z,12.50
2023-02-07T23:58:18.240Z,12.47
